sensor_id;sensor_type;location;lat;lon;timestamp;pressure;altitude;pressure_sealevel;temperature;humidity
73016;BME280;61893;50.074;14.440;2022-08-19T00:01:31;97707.66;;;21.86;66.91
73016;BME280;61893;50.074;14.440;2022-08-19T00:03:59;97700.84;;;21.66;67.44
73016;BME280;61893;50.074;14.440;2022-08-19T00:06:42;97704.69;;;21.70;67.47
73016;BME280;61893;50.074;14.440;2022-08-19T00:09:16;97698.19;;;21.71;67.55
73016;BME280;61893;50.074;14.440;2022-08-19T00:11:42;97702.47;;;21.67;67.46
73016;BME280;61893;50.074;14.440;2022-08-19T00:14:10;97714.84;;;21.63;67.99
73016;BME280;61893;50.074;14.440;2022-08-19T00:16:37;97720.19;;;21.58;68.25
73016;BME280;61893;50.074;14.440;2022-08-19T00:19:06;97711.00;;;21.59;68.31
73016;BME280;61893;50.074;14.440;2022-08-19T00:21:33;97724.28;;;21.61;68.03
73016;BME280;61893;50.074;14.440;2022-08-19T00:24:03;97721.00;;;21.58;68.26
73016;BME280;61893;50.074;14.440;2022-08-19T00:26:29;97711.81;;;21.59;68.44
73016;BME280;61893;50.074;14.440;2022-08-19T00:28:55;97709.59;;;21.56;68.76
73016;BME280;61893;50.074;14.440;2022-08-19T00:31:21;97709.41;;;21.46;68.71
73016;BME280;61893;50.074;14.440;2022-08-19T00:33:47;97700.94;;;21.43;69.27
73016;BME280;61893;50.074;14.440;2022-08-19T00:36:16;97707.75;;;21.45;69.14
73016;BME280;61893;50.074;14.440;2022-08-19T00:38:42;97690.13;;;21.43;69.39
73016;BME280;61893;50.074;14.440;2022-08-19T00:41:09;97680.47;;;21.47;69.23
73016;BME280;61893;50.074;14.440;2022-08-19T00:43:38;97680.03;;;21.38;69.59
73016;BME280;61893;50.074;14.440;2022-08-19T00:46:05;97694.91;;;21.52;69.11
73016;BME280;61893;50.074;14.440;2022-08-19T00:48:32;97690.47;;;21.46;69.88
73016;BME280;61893;50.074;14.440;2022-08-19T00:51:04;97684.50;;;21.32;70.05
73016;BME280;61893;50.074;14.440;2022-08-19T00:53:31;97685.00;;;21.29;70.38
73016;BME280;61893;50.074;14.440;2022-08-19T00:56:08;97683.09;;;21.30;70.07
73016;BME280;61893;50.074;14.440;2022-08-19T00:58:34;97683.78;;;21.37;69.87
73016;BME280;61893;50.074;14.440;2022-08-19T01:01:03;97694.72;;;21.42;69.97
73016;BME280;61893;50.074;14.440;2022-08-19T01:03:39;97703.31;;;21.39;70.13
73016;BME280;61893;50.074;14.440;2022-08-19T01:06:05;97712.13;;;21.34;70.50
73016;BME280;61893;50.074;14.440;2022-08-19T01:08:31;97721.69;;;21.25;70.99
73016;BME280;61893;50.074;14.440;2022-08-19T01:10:59;97723.09;;;21.28;70.81
73016;BME280;61893;50.074;14.440;2022-08-19T01:13:29;97732.38;;;21.32;70.64
73016;BME280;61893;50.074;14.440;2022-08-19T01:16:03;97722.22;;;21.10;71.64
73016;BME280;61893;50.074;14.440;2022-08-19T01:18:32;97726.44;;;21.18;71.35
73016;BME280;61893;50.074;14.440;2022-08-19T01:21:08;97733.72;;;21.18;71.74
73016;BME280;61893;50.074;14.440;2022-08-19T01:23:34;97738.34;;;21.34;70.58
73016;BME280;61893;50.074;14.440;2022-08-19T01:26:23;97732.59;;;21.02;71.93
73016;BME280;61893;50.074;14.440;2022-08-19T01:28:53;97736.81;;;21.09;71.91
73016;BME280;61893;50.074;14.440;2022-08-19T01:31:22;97724.50;;;21.30;71.41
73016;BME280;61893;50.074;14.440;2022-08-19T01:33:51;97727.78;;;21.32;71.13
73016;BME280;61893;50.074;14.440;2022-08-19T01:36:30;97735.38;;;21.19;71.35
73016;BME280;61893;50.074;14.440;2022-08-19T01:38:56;97734.91;;;21.10;72.29
73016;BME280;61893;50.074;14.440;2022-08-19T01:41:23;97732.91;;;21.05;72.22
73016;BME280;61893;50.074;14.440;2022-08-19T01:43:50;97736.13;;;20.90;72.62
73016;BME280;61893;50.074;14.440;2022-08-19T01:46:17;97732.88;;;21.17;72.05
73016;BME280;61893;50.074;14.440;2022-08-19T01:48:43;97737.06;;;20.96;72.30
73016;BME280;61893;50.074;14.440;2022-08-19T01:51:10;97744.59;;;20.82;73.10
73016;BME280;61893;50.074;14.440;2022-08-19T01:53:36;97743.56;;;20.72;73.72
73016;BME280;61893;50.074;14.440;2022-08-19T01:56:05;97743.00;;;20.69;73.55
73016;BME280;61893;50.074;14.440;2022-08-19T01:58:38;97755.56;;;20.76;73.28
73016;BME280;61893;50.074;14.440;2022-08-19T02:01:06;97766.25;;;20.70;73.54
73016;BME280;61893;50.074;14.440;2022-08-19T02:03:34;97773.75;;;20.68;73.68
73016;BME280;61893;50.074;14.440;2022-08-19T02:06:14;97782.25;;;20.60;73.78
73016;BME280;61893;50.074;14.440;2022-08-19T02:08:57;97772.25;;;20.73;73.36
73016;BME280;61893;50.074;14.440;2022-08-19T02:11:26;97778.69;;;20.60;73.67
73016;BME280;61893;50.074;14.440;2022-08-19T02:14:09;97788.94;;;20.69;73.73
73016;BME280;61893;50.074;14.440;2022-08-19T02:16:36;97781.78;;;20.63;73.90
73016;BME280;61893;50.074;14.440;2022-08-19T02:19:03;97787.53;;;20.55;74.10
73016;BME280;61893;50.074;14.440;2022-08-19T02:21:32;97790.09;;;20.50;74.45
73016;BME280;61893;50.074;14.440;2022-08-19T02:23:58;97785.75;;;20.49;74.09
73016;BME280;61893;50.074;14.440;2022-08-19T02:26:26;97793.84;;;20.49;74.63
73016;BME280;61893;50.074;14.440;2022-08-19T02:29:00;97796.44;;;20.44;74.28
73016;BME280;61893;50.074;14.440;2022-08-19T02:31:26;97810.75;;;20.44;74.65
73016;BME280;61893;50.074;14.440;2022-08-19T02:33:55;97816.03;;;20.39;74.82
73016;BME280;61893;50.074;14.440;2022-08-19T02:36:25;97808.75;;;20.40;74.91
73016;BME280;61893;50.074;14.440;2022-08-19T02:39:11;97810.06;;;20.49;74.60
73016;BME280;61893;50.074;14.440;2022-08-19T02:41:40;97792.38;;;20.23;75.31
73016;BME280;61893;50.074;14.440;2022-08-19T02:44:07;97798.97;;;20.15;75.93
73016;BME280;61893;50.074;14.440;2022-08-19T02:46:34;97799.22;;;20.37;74.92
73016;BME280;61893;50.074;14.440;2022-08-19T02:49:10;97795.59;;;20.32;75.05
73016;BME280;61893;50.074;14.440;2022-08-19T02:51:39;97803.66;;;20.20;75.50
73016;BME280;61893;50.074;14.440;2022-08-19T02:54:09;97801.41;;;20.17;75.54
73016;BME280;61893;50.074;14.440;2022-08-19T02:57:05;97812.81;;;20.19;75.27
73016;BME280;61893;50.074;14.440;2022-08-19T03:00:34;97818.38;;;20.24;75.63
73016;BME280;61893;50.074;14.440;2022-08-19T03:03:00;97815.06;;;20.22;75.87
73016;BME280;61893;50.074;14.440;2022-08-19T03:05:28;97818.38;;;20.24;75.38
73016;BME280;61893;50.074;14.440;2022-08-19T03:08:00;97819.28;;;20.18;75.23
73016;BME280;61893;50.074;14.440;2022-08-19T03:10:45;97820.25;;;20.35;74.95
73016;BME280;61893;50.074;14.440;2022-08-19T03:13:30;97813.25;;;20.04;75.89
73016;BME280;61893;50.074;14.440;2022-08-19T03:15:56;97810.69;;;20.09;75.46
73016;BME280;61893;50.074;14.440;2022-08-19T03:18:35;97818.47;;;20.17;75.18
73016;BME280;61893;50.074;14.440;2022-08-19T03:21:01;97816.56;;;20.06;75.54
73016;BME280;61893;50.074;14.440;2022-08-19T03:23:29;97816.78;;;20.05;75.47
73016;BME280;61893;50.074;14.440;2022-08-19T03:25:55;97817.41;;;20.18;75.01
73016;BME280;61893;50.074;14.440;2022-08-19T03:28:21;97815.59;;;20.00;75.69
73016;BME280;61893;50.074;14.440;2022-08-19T03:31:20;97814.53;;;20.01;75.79
73016;BME280;61893;50.074;14.440;2022-08-19T03:33:51;97822.66;;;20.13;75.79
73016;BME280;61893;50.074;14.440;2022-08-19T03:36:19;97812.03;;;19.88;76.36
73016;BME280;61893;50.074;14.440;2022-08-19T03:38:52;97810.38;;;19.87;76.48
73016;BME280;61893;50.074;14.440;2022-08-19T03:41:22;97811.16;;;20.06;76.06
73016;BME280;61893;50.074;14.440;2022-08-19T03:43:53;97809.50;;;20.05;75.82
73016;BME280;61893;50.074;14.440;2022-08-19T03:46:35;97806.91;;;19.98;75.93
73016;BME280;61893;50.074;14.440;2022-08-19T03:49:03;97806.13;;;20.10;75.33
73016;BME280;61893;50.074;14.440;2022-08-19T03:51:49;97805.16;;;20.04;75.58
73016;BME280;61893;50.074;14.440;2022-08-19T03:54:18;97792.81;;;20.08;75.43
73016;BME280;61893;50.074;14.440;2022-08-19T03:56:50;97786.50;;;20.14;74.95
73016;BME280;61893;50.074;14.440;2022-08-19T03:59:27;97791.78;;;20.09;75.07
73016;BME280;61893;50.074;14.440;2022-08-19T04:01:54;97795.09;;;20.23;74.33
73016;BME280;61893;50.074;14.440;2022-08-19T04:04:24;97797.75;;;20.11;75.13
73016;BME280;61893;50.074;14.440;2022-08-19T04:07:03;97796.41;;;20.32;74.10
73016;BME280;61893;50.074;14.440;2022-08-19T04:09:42;97786.63;;;20.19;74.91
73016;BME280;61893;50.074;14.440;2022-08-19T04:12:10;97790.38;;;20.07;74.73
73016;BME280;61893;50.074;14.440;2022-08-19T04:14:36;97787.19;;;19.98;75.30
73016;BME280;61893;50.074;14.440;2022-08-19T04:17:03;97791.09;;;20.14;74.19
73016;BME280;61893;50.074;14.440;2022-08-19T04:19:31;97798.16;;;20.27;73.61
73016;BME280;61893;50.074;14.440;2022-08-19T04:21:57;97816.13;;;20.21;74.21
73016;BME280;61893;50.074;14.440;2022-08-19T04:24:23;97815.53;;;20.19;73.99
73016;BME280;61893;50.074;14.440;2022-08-19T04:26:50;97814.84;;;20.23;73.79
73016;BME280;61893;50.074;14.440;2022-08-19T04:29:24;97820.72;;;20.32;73.37
73016;BME280;61893;50.074;14.440;2022-08-19T04:31:51;97834.91;;;20.28;73.78
73016;BME280;61893;50.074;14.440;2022-08-19T04:34:24;97838.13;;;20.48;72.63
73016;BME280;61893;50.074;14.440;2022-08-19T04:36:52;97849.97;;;20.35;73.44
73016;BME280;61893;50.074;14.440;2022-08-19T04:39:24;97857.38;;;20.40;73.11
73016;BME280;61893;50.074;14.440;2022-08-19T04:42:16;97868.16;;;20.28;73.73
73016;BME280;61893;50.074;14.440;2022-08-19T04:45:02;97882.88;;;20.44;73.12
73016;BME280;61893;50.074;14.440;2022-08-19T04:47:38;97877.19;;;20.64;72.24
73016;BME280;61893;50.074;14.440;2022-08-19T04:50:08;97881.72;;;20.52;72.99
73016;BME280;61893;50.074;14.440;2022-08-19T04:52:35;97890.06;;;20.50;73.06
73016;BME280;61893;50.074;14.440;2022-08-19T04:55:01;97890.38;;;20.60;72.78
73016;BME280;61893;50.074;14.440;2022-08-19T04:57:34;97894.69;;;20.61;72.86
73016;BME280;61893;50.074;14.440;2022-08-19T05:00:02;97901.09;;;20.48;73.55
73016;BME280;61893;50.074;14.440;2022-08-19T05:02:30;97896.34;;;20.62;72.43
73016;BME280;61893;50.074;14.440;2022-08-19T05:05:04;97905.78;;;20.41;73.99
73016;BME280;61893;50.074;14.440;2022-08-19T05:07:32;97912.50;;;20.51;73.94
73016;BME280;61893;50.074;14.440;2022-08-19T05:09:57;97914.56;;;20.55;73.38
73016;BME280;61893;50.074;14.440;2022-08-19T05:12:23;97912.50;;;20.51;73.56
73016;BME280;61893;50.074;14.440;2022-08-19T05:14:50;97913.53;;;20.38;74.33
73016;BME280;61893;50.074;14.440;2022-08-19T05:17:18;97924.47;;;20.43;74.19
73016;BME280;61893;50.074;14.440;2022-08-19T05:20:15;97915.78;;;20.41;73.95
73016;BME280;61893;50.074;14.440;2022-08-19T05:22:59;97923.41;;;20.86;72.27
73016;BME280;61893;50.074;14.440;2022-08-19T05:25:25;97931.84;;;20.66;73.15
73016;BME280;61893;50.074;14.440;2022-08-19T05:27:50;97916.34;;;20.73;72.87
73016;BME280;61893;50.074;14.440;2022-08-19T05:30:30;97919.72;;;20.57;73.34
73016;BME280;61893;50.074;14.440;2022-08-19T05:32:57;97919.19;;;20.78;72.62
73016;BME280;61893;50.074;14.440;2022-08-19T05:35:23;97917.78;;;20.87;72.19
73016;BME280;61893;50.074;14.440;2022-08-19T05:37:49;97915.66;;;20.78;72.67
73016;BME280;61893;50.074;14.440;2022-08-19T05:40:16;97919.31;;;21.07;71.47
73016;BME280;61893;50.074;14.440;2022-08-19T05:42:42;97929.41;;;21.00;71.67
73016;BME280;61893;50.074;14.440;2022-08-19T05:45:08;97926.16;;;20.98;71.64
73016;BME280;61893;50.074;14.440;2022-08-19T05:47:38;97935.56;;;21.07;71.61
73016;BME280;61893;50.074;14.440;2022-08-19T05:50:25;97940.72;;;21.08;71.27
73016;BME280;61893;50.074;14.440;2022-08-19T05:52:56;97950.59;;;21.14;71.22
73016;BME280;61893;50.074;14.440;2022-08-19T05:55:22;97953.41;;;21.20;70.61
73016;BME280;61893;50.074;14.440;2022-08-19T05:57:49;97962.72;;;21.24;70.47
73016;BME280;61893;50.074;14.440;2022-08-19T06:00:15;97972.63;;;21.30;70.27
73016;BME280;61893;50.074;14.440;2022-08-19T06:02:42;97980.94;;;21.17;70.66
73016;BME280;61893;50.074;14.440;2022-08-19T06:05:08;97984.16;;;21.37;69.66
73016;BME280;61893;50.074;14.440;2022-08-19T06:07:37;97981.66;;;21.35;69.90
73016;BME280;61893;50.074;14.440;2022-08-19T06:10:06;97994.75;;;21.50;69.37
73016;BME280;61893;50.074;14.440;2022-08-19T06:12:38;97999.09;;;21.63;69.20
73016;BME280;61893;50.074;14.440;2022-08-19T06:15:08;98005.47;;;21.45;69.64
73016;BME280;61893;50.074;14.440;2022-08-19T06:17:35;97996.03;;;21.36;70.50
73016;BME280;61893;50.074;14.440;2022-08-19T06:20:04;97998.75;;;21.59;69.29
73016;BME280;61893;50.074;14.440;2022-08-19T06:22:30;98006.28;;;21.69;69.27
73016;BME280;61893;50.074;14.440;2022-08-19T06:24:55;98014.88;;;21.54;70.10
73016;BME280;61893;50.074;14.440;2022-08-19T06:27:22;98013.47;;;21.75;69.36
73016;BME280;61893;50.074;14.440;2022-08-19T06:29:49;98006.16;;;21.88;68.48
73016;BME280;61893;50.074;14.440;2022-08-19T06:32:16;98010.47;;;21.89;68.59
73016;BME280;61893;50.074;14.440;2022-08-19T06:34:43;98011.69;;;21.93;68.86
73016;BME280;61893;50.074;14.440;2022-08-19T06:37:09;98005.09;;;21.77;69.18
73016;BME280;61893;50.074;14.440;2022-08-19T06:39:37;98009.06;;;22.10;67.83
73016;BME280;61893;50.074;14.440;2022-08-19T06:42:07;97994.09;;;22.19;67.59
73016;BME280;61893;50.074;14.440;2022-08-19T06:44:36;98008.69;;;22.30;67.01
73016;BME280;61893;50.074;14.440;2022-08-19T06:47:08;98022.38;;;22.52;66.66
73016;BME280;61893;50.074;14.440;2022-08-19T06:49:35;98020.44;;;22.64;66.44
73016;BME280;61893;50.074;14.440;2022-08-19T06:52:03;98027.13;;;22.44;66.91
73016;BME280;61893;50.074;14.440;2022-08-19T06:54:29;98035.16;;;22.39;67.10
73016;BME280;61893;50.074;14.440;2022-08-19T06:56:59;98035.16;;;22.39;66.72
73016;BME280;61893;50.074;14.440;2022-08-19T06:59:29;98034.66;;;22.71;65.84
73016;BME280;61893;50.074;14.440;2022-08-19T07:02:00;98047.03;;;22.50;66.33
73016;BME280;61893;50.074;14.440;2022-08-19T07:04:33;98045.78;;;22.69;65.44
73016;BME280;61893;50.074;14.440;2022-08-19T07:07:07;98048.47;;;22.69;65.74
73016;BME280;61893;50.074;14.440;2022-08-19T07:09:36;98043.50;;;22.78;65.03
73016;BME280;61893;50.074;14.440;2022-08-19T07:12:19;98055.78;;;22.69;65.31
73016;BME280;61893;50.074;14.440;2022-08-19T07:14:44;98057.56;;;22.92;64.82
73016;BME280;61893;50.074;14.440;2022-08-19T07:17:23;98053.75;;;23.05;64.41
73016;BME280;61893;50.074;14.440;2022-08-19T07:19:52;98054.66;;;22.82;64.37
73016;BME280;61893;50.074;14.440;2022-08-19T07:22:18;98043.81;;;22.82;64.62
73016;BME280;61893;50.074;14.440;2022-08-19T07:24:47;98025.88;;;22.64;64.86
73016;BME280;61893;50.074;14.440;2022-08-19T07:27:14;98021.19;;;22.76;64.65
73016;BME280;61893;50.074;14.440;2022-08-19T07:29:39;98015.81;;;22.93;63.98
73016;BME280;61893;50.074;14.440;2022-08-19T07:32:08;98017.81;;;22.69;65.46
73016;BME280;61893;50.074;14.440;2022-08-19T07:34:34;98007.72;;;22.64;65.24
73016;BME280;61893;50.074;14.440;2022-08-19T07:37:06;98006.56;;;22.77;64.75
73016;BME280;61893;50.074;14.440;2022-08-19T07:39:36;98005.19;;;22.91;64.26
73016;BME280;61893;50.074;14.440;2022-08-19T07:42:07;97997.94;;;22.80;64.62
73016;BME280;61893;50.074;14.440;2022-08-19T07:44:34;97993.03;;;22.94;63.99
73016;BME280;61893;50.074;14.440;2022-08-19T07:47:03;97994.16;;;23.10;63.70
73016;BME280;61893;50.074;14.440;2022-08-19T07:49:30;98000.50;;;23.15;63.53
73016;BME280;61893;50.074;14.440;2022-08-19T07:52:00;97988.22;;;23.13;63.44
73016;BME280;61893;50.074;14.440;2022-08-19T07:54:28;97986.91;;;23.32;62.33
73016;BME280;61893;50.074;14.440;2022-08-19T07:56:54;97972.09;;;23.23;63.00
73016;BME280;61893;50.074;14.440;2022-08-19T07:59:21;97963.41;;;23.21;63.12
73016;BME280;61893;50.074;14.440;2022-08-19T08:02:04;97964.56;;;22.80;64.10
73016;BME280;61893;50.074;14.440;2022-08-19T08:04:30;97953.38;;;23.05;63.31
73016;BME280;61893;50.074;14.440;2022-08-19T08:07:16;97952.47;;;23.55;61.87
73016;BME280;61893;50.074;14.440;2022-08-19T08:10:00;97939.31;;;23.08;63.49
73016;BME280;61893;50.074;14.440;2022-08-19T08:12:45;97937.16;;;23.10;63.51
73016;BME280;61893;50.074;14.440;2022-08-19T08:15:13;97927.63;;;23.07;63.40
73016;BME280;61893;50.074;14.440;2022-08-19T08:17:42;97932.75;;;23.04;63.53
73016;BME280;61893;50.074;14.440;2022-08-19T08:20:09;97938.47;;;23.24;62.41
73016;BME280;61893;50.074;14.440;2022-08-19T08:22:34;97943.88;;;22.74;64.07
73016;BME280;61893;50.074;14.440;2022-08-19T08:25:21;97949.81;;;23.21;62.24
73016;BME280;61893;50.074;14.440;2022-08-19T08:27:56;97955.97;;;23.33;62.04
73016;BME280;61893;50.074;14.440;2022-08-19T08:30:27;97964.81;;;23.63;60.79
73016;BME280;61893;50.074;14.440;2022-08-19T08:32:53;97970.16;;;23.57;61.33
73016;BME280;61893;50.074;14.440;2022-08-19T08:35:21;97983.38;;;24.10;60.03
73016;BME280;61893;50.074;14.440;2022-08-19T08:37:53;97994.25;;;24.10;59.54
73016;BME280;61893;50.074;14.440;2022-08-19T08:40:25;98005.00;;;24.21;59.30
73016;BME280;61893;50.074;14.440;2022-08-19T08:43:21;98016.25;;;24.30;58.32
73016;BME280;61893;50.074;14.440;2022-08-19T08:46:10;98019.47;;;24.27;58.01
73016;BME280;61893;50.074;14.440;2022-08-19T08:48:51;98023.00;;;24.27;58.27
73016;BME280;61893;50.074;14.440;2022-08-19T08:51:27;98026.69;;;23.77;59.22
73016;BME280;61893;50.074;14.440;2022-08-19T08:53:54;98039.13;;;23.90;59.75
73016;BME280;61893;50.074;14.440;2022-08-19T08:56:21;98032.84;;;24.12;59.43
73016;BME280;61893;50.074;14.440;2022-08-19T08:58:54;98040.28;;;24.16;59.22
73016;BME280;61893;50.074;14.440;2022-08-19T09:01:25;98029.84;;;24.08;59.49
73016;BME280;61893;50.074;14.440;2022-08-19T09:03:53;98028.81;;;24.14;59.11
73016;BME280;61893;50.074;14.440;2022-08-19T09:06:32;98027.09;;;23.86;60.19
73016;BME280;61893;50.074;14.440;2022-08-19T09:17:03;98014.28;;;24.25;58.09
73016;BME280;61893;50.074;14.440;2022-08-19T09:19:58;98016.63;;;24.17;58.09
73016;BME280;61893;50.074;14.440;2022-08-19T09:22:24;98022.50;;;24.09;58.34
73016;BME280;61893;50.074;14.440;2022-08-19T09:24:55;98020.88;;;24.30;57.77
73016;BME280;61893;50.074;14.440;2022-08-19T09:27:23;98020.25;;;24.44;57.71
73016;BME280;61893;50.074;14.440;2022-08-19T09:29:52;98019.06;;;24.40;57.46
73016;BME280;61893;50.074;14.440;2022-08-19T09:32:19;98015.19;;;24.53;56.94
73016;BME280;61893;50.074;14.440;2022-08-19T09:34:44;98014.00;;;24.71;56.89
73016;BME280;61893;50.074;14.440;2022-08-19T09:37:13;98008.91;;;25.07;55.31
73016;BME280;61893;50.074;14.440;2022-08-19T09:39:39;98009.50;;;24.82;55.87
73016;BME280;61893;50.074;14.440;2022-08-19T09:42:08;98005.78;;;24.93;55.32
73016;BME280;61893;50.074;14.440;2022-08-19T09:44:43;98018.34;;;24.45;56.74
73016;BME280;61893;50.074;14.440;2022-08-19T09:47:10;98009.94;;;24.46;56.67
73016;BME280;61893;50.074;14.440;2022-08-19T09:49:37;98011.53;;;24.97;55.33
73016;BME280;61893;50.074;14.440;2022-08-19T09:52:05;98012.00;;;25.15;54.96
73016;BME280;61893;50.074;14.440;2022-08-19T09:54:33;98006.50;;;25.10;54.55
73016;BME280;61893;50.074;14.440;2022-08-19T09:56:59;98011.00;;;25.00;55.52
73016;BME280;61893;50.074;14.440;2022-08-19T09:59:42;98025.91;;;25.19;55.40
73016;BME280;61893;50.074;14.440;2022-08-19T10:02:09;98019.13;;;24.94;56.26
73016;BME280;61893;50.074;14.440;2022-08-19T10:04:36;98022.81;;;25.10;56.04
73016;BME280;61893;50.074;14.440;2022-08-19T10:07:20;98030.53;;;24.91;56.42
73016;BME280;61893;50.074;14.440;2022-08-19T10:09:45;98031.72;;;24.73;56.93
73016;BME280;61893;50.074;14.440;2022-08-19T10:12:12;98035.91;;;24.86;56.36
73016;BME280;61893;50.074;14.440;2022-08-19T10:14:48;98028.13;;;24.68;56.65
73016;BME280;61893;50.074;14.440;2022-08-19T10:17:16;98032.28;;;24.76;56.52
73016;BME280;61893;50.074;14.440;2022-08-19T10:19:43;98043.31;;;24.64;56.52
73016;BME280;61893;50.074;14.440;2022-08-19T10:22:08;98045.78;;;24.43;57.30
73016;BME280;61893;50.074;14.440;2022-08-19T10:24:40;98045.16;;;24.58;56.42
73016;BME280;61893;50.074;14.440;2022-08-19T10:27:07;98048.56;;;24.70;57.39
73016;BME280;61893;50.074;14.440;2022-08-19T10:29:38;98048.03;;;25.01;56.47
73016;BME280;61893;50.074;14.440;2022-08-19T10:32:05;98048.09;;;24.79;57.01
73016;BME280;61893;50.074;14.440;2022-08-19T10:34:48;98037.56;;;24.87;56.74
73016;BME280;61893;50.074;14.440;2022-08-19T10:37:16;98044.81;;;24.77;56.55
73016;BME280;61893;50.074;14.440;2022-08-19T10:39:45;98035.78;;;24.71;56.48
73016;BME280;61893;50.074;14.440;2022-08-19T10:42:23;98037.16;;;24.73;56.68
73016;BME280;61893;50.074;14.440;2022-08-19T10:45:06;98031.19;;;25.04;56.35
73016;BME280;61893;50.074;14.440;2022-08-19T10:47:33;98037.06;;;25.17;55.58
73016;BME280;61893;50.074;14.440;2022-08-19T10:50:04;98035.53;;;25.27;55.41
73016;BME280;61893;50.074;14.440;2022-08-19T10:52:50;98032.91;;;25.42;55.46
73016;BME280;61893;50.074;14.440;2022-08-19T10:55:17;98036.50;;;25.48;54.67
73016;BME280;61893;50.074;14.440;2022-08-19T10:58:20;98038.19;;;25.22;54.90
73016;BME280;61893;50.074;14.440;2022-08-19T11:00:57;98031.00;;;25.43;54.60
73016;BME280;61893;50.074;14.440;2022-08-19T11:03:25;98038.88;;;25.39;54.04
73016;BME280;61893;50.074;14.440;2022-08-19T11:06:04;98039.84;;;25.23;54.52
73016;BME280;61893;50.074;14.440;2022-08-19T11:08:31;98037.16;;;25.28;54.43
73016;BME280;61893;50.074;14.440;2022-08-19T11:11:00;98033.44;;;25.39;54.51
73016;BME280;61893;50.074;14.440;2022-08-19T11:13:31;98027.13;;;25.71;53.28
73016;BME280;61893;50.074;14.440;2022-08-19T11:16:03;98020.00;;;25.65;53.95
73016;BME280;61893;50.074;14.440;2022-08-19T11:18:38;98027.34;;;26.01;53.22
73016;BME280;61893;50.074;14.440;2022-08-19T11:21:25;98027.06;;;26.03;52.49
73016;BME280;61893;50.074;14.440;2022-08-19T11:23:53;98025.22;;;26.24;52.16
73016;BME280;61893;50.074;14.440;2022-08-19T11:26:35;98027.19;;;26.34;51.59
73016;BME280;61893;50.074;14.440;2022-08-19T11:29:21;98028.56;;;26.31;51.43
73016;BME280;61893;50.074;14.440;2022-08-19T11:32:11;98021.59;;;26.56;50.97
73016;BME280;61893;50.074;14.440;2022-08-19T11:34:59;98022.13;;;26.63;50.99
73016;BME280;61893;50.074;14.440;2022-08-19T11:37:27;98016.47;;;26.85;50.81
73016;BME280;61893;50.074;14.440;2022-08-19T11:40:14;98016.13;;;26.61;51.23
73016;BME280;61893;50.074;14.440;2022-08-19T11:43:09;98015.34;;;26.70;50.05
73016;BME280;61893;50.074;14.440;2022-08-19T11:45:43;98014.66;;;26.33;50.68
73016;BME280;61893;50.074;14.440;2022-08-19T11:48:24;98022.94;;;26.53;50.40
73016;BME280;61893;50.074;14.440;2022-08-19T11:50:52;98027.94;;;27.02;48.99
73016;BME280;61893;50.074;14.440;2022-08-19T11:53:20;98021.16;;;27.20;48.24
73016;BME280;61893;50.074;14.440;2022-08-19T11:55:50;98024.09;;;26.83;49.43
73016;BME280;61893;50.074;14.440;2022-08-19T11:58:23;98017.16;;;25.87;52.09
73016;BME280;61893;50.074;14.440;2022-08-19T12:00:50;98017.31;;;25.75;52.44
73016;BME280;61893;50.074;14.440;2022-08-19T12:03:21;98018.13;;;26.18;51.61
73016;BME280;61893;50.074;14.440;2022-08-19T12:05:50;98014.41;;;26.49;50.95
73016;BME280;61893;50.074;14.440;2022-08-19T12:08:19;98004.88;;;26.47;50.29
73016;BME280;61893;50.074;14.440;2022-08-19T12:10:45;98002.13;;;26.42;50.64
73016;BME280;61893;50.074;14.440;2022-08-19T12:13:12;97995.19;;;27.02;49.16
73016;BME280;61893;50.074;14.440;2022-08-19T12:15:46;97993.81;;;27.15;48.80
73016;BME280;61893;50.074;14.440;2022-08-19T12:18:12;97991.59;;;27.68;47.67
73016;BME280;61893;50.074;14.440;2022-08-19T12:20:41;97985.38;;;28.33;46.56
73016;BME280;61893;50.074;14.440;2022-08-19T12:23:08;97991.16;;;28.26;46.97
73016;BME280;61893;50.074;14.440;2022-08-19T12:25:36;97988.22;;;28.07;45.83
73016;BME280;61893;50.074;14.440;2022-08-19T12:28:03;97982.56;;;27.93;47.23
73016;BME280;61893;50.074;14.440;2022-08-19T12:30:30;97976.31;;;27.62;46.42
73016;BME280;61893;50.074;14.440;2022-08-19T12:32:56;97988.66;;;27.39;47.16
73016;BME280;61893;50.074;14.440;2022-08-19T12:35:21;97977.38;;;27.71;46.42
73016;BME280;61893;50.074;14.440;2022-08-19T12:38:07;97982.59;;;27.57;46.69
73016;BME280;61893;50.074;14.440;2022-08-19T12:40:32;97985.03;;;27.69;45.56
73016;BME280;61893;50.074;14.440;2022-08-19T12:42:58;97991.09;;;27.35;46.46
73016;BME280;61893;50.074;14.440;2022-08-19T12:45:24;97980.16;;;27.40;46.53
73016;BME280;61893;50.074;14.440;2022-08-19T12:47:50;97994.66;;;27.15;47.51
73016;BME280;61893;50.074;14.440;2022-08-19T12:50:17;97993.47;;;26.60;48.83
73016;BME280;61893;50.074;14.440;2022-08-19T12:52:42;97992.41;;;26.87;48.33
73016;BME280;61893;50.074;14.440;2022-08-19T12:55:08;97985.63;;;26.94;48.32
73016;BME280;61893;50.074;14.440;2022-08-19T12:57:34;97984.22;;;26.66;49.39
73016;BME280;61893;50.074;14.440;2022-08-19T13:00:08;97978.53;;;27.34;47.51
73016;BME280;61893;50.074;14.440;2022-08-19T13:02:43;97971.91;;;27.87;46.65
73016;BME280;61893;50.074;14.440;2022-08-19T13:05:15;97974.59;;;27.97;46.37
73016;BME280;61893;50.074;14.440;2022-08-19T13:08:01;97971.28;;;28.65;44.89
73016;BME280;61893;50.074;14.440;2022-08-19T13:10:30;97969.19;;;28.46;45.10
73016;BME280;61893;50.074;14.440;2022-08-19T13:13:02;97962.97;;;28.30;45.28
73016;BME280;61893;50.074;14.440;2022-08-19T13:15:28;97971.19;;;28.25;45.51
73016;BME280;61893;50.074;14.440;2022-08-19T13:17:57;97961.34;;;28.79;44.39
73016;BME280;61893;50.074;14.440;2022-08-19T13:20:24;97965.72;;;28.30;45.71